»·PEaware :: N242DR KMRY-KLAS

N242DR :: KMRY-KLAS

FLIGHT INFORMATION

Flight Status: Arrived
Operator: Privately registered:
United States
More flights under this callsign
Pilot: Andy P. (22680)
Aircraft: GATES LEARJET LEARJET 35/36
(LJ35)
More flights by this aircraft type
Origin: KMRY Monterey Peninsula
United States
Destination: KLAS McCarran Intl
United States
More flights between these airports :: More routes between these airports
Route: +SNS PXN NTELL PPARK BTY SUNST4
File this flight plan on PilotEdge
Remarks:
Altitude:
(Current/Filed)
35,000ft
Speed:
(Current/Filed)
465kts
Departed: 04-Jan-20 03:09 PM
Arrived: 04-Jan-20 04:05 PM
Distance/Time
Traveled:
324nm/0:56
Distance/Time
To Go:
Arrived

Flight Plot

Page will automatically refresh every two minutes.

Flight plan parsing failed; only flown route is shown


Map Options




Map Legend


Flown Route
Filed Route
Departure Airport
Arrival Airport
Navaid (VOR, NDB)
Fix

Horizontal Profiles

Position Reports

Time Latitude Longitude Heading Altitude Ground
Speed
04-Jan-20 14:47 36.589313 -121.857864 342 208ft 0kts
04-Jan-20 14:48 36.589313 -121.857864 342 208ft 0kts
04-Jan-20 14:49 36.589313 -121.857864 342 208ft 0kts
04-Jan-20 14:50 36.589313 -121.857864 342 208ft 0kts
04-Jan-20 14:51 36.589313 -121.857864 342 208ft 0kts
04-Jan-20 14:52 36.589313 -121.857864 342 208ft 0kts
04-Jan-20 14:53 36.589313 -121.857864 342 208ft 0kts
04-Jan-20 14:54 36.589313 -121.857864 342 208ft 0kts
04-Jan-20 14:55 36.589313 -121.857864 342 208ft 0kts
04-Jan-20 14:56 36.589313 -121.857864 342 208ft 0kts
04-Jan-20 14:57 36.589313 -121.857864 342 208ft 0kts
04-Jan-20 14:58 36.589313 -121.857864 342 208ft 0kts
04-Jan-20 14:59 36.589313 -121.857864 342 208ft 0kts
04-Jan-20 15:00 36.589313 -121.857864 342 208ft 0kts
04-Jan-20 15:01 36.589315 -121.857865 342 208ft 0kts
04-Jan-20 15:02 36.589317 -121.857866 342 208ft 0kts
04-Jan-20 15:03 36.589320 -121.857867 342 208ft 0kts
04-Jan-20 15:04 36.589334 -121.857077 99 208ft 11kts
04-Jan-20 15:05 36.588155 -121.850237 112 208ft 26kts
04-Jan-20 15:06 36.585047 -121.841513 113 208ft 25kts
04-Jan-20 15:07 36.582892 -121.834083 84 208ft 18kts
04-Jan-20 15:08 36.592506 -121.860048 293 978ft 173kts
04-Jan-20 15:09 36.637281 -121.891239 342 3727ft 208kts
04-Jan-20 15:10 36.693032 -121.913576 326 6299ft 210kts
04-Jan-20 15:11 36.717547 -121.981957 284 8709ft 227kts
04-Jan-20 15:12 36.733836 -122.065661 287 12420ft 253kts
04-Jan-20 15:13 36.753464 -122.155309 300 16553ft 276kts
04-Jan-20 15:14 36.832415 -122.163169 28 19410ft 370kts
04-Jan-20 15:15 36.862676 -122.038811 115 21834ft 390kts
04-Jan-20 15:16 36.789119 -121.950732 158 24718ft 368kts
04-Jan-20 15:17 36.711718 -121.860814 125 27515ft 426kts
04-Jan-20 15:18 36.680562 -121.711005 108 29712ft 458kts
04-Jan-20 15:19 36.667121 -121.552623 91 31949ft 473kts
04-Jan-20 15:20 36.678215 -121.383207 89 32897ft 504kts
04-Jan-20 15:21 36.689201 -121.209619 89 34819ft 500kts
04-Jan-20 15:22 36.700057 -121.033855 89 35442ft 523kts
04-Jan-20 15:23 36.711363 -120.848333 88 35436ft 548kts
04-Jan-20 15:24 36.740320 -120.660690 76 35426ft 555kts
04-Jan-20 15:25 36.779398 -120.473997 77 35412ft 557kts
04-Jan-20 15:26 36.818210 -120.287067 77 35412ft 557kts
04-Jan-20 15:27 36.856786 -120.099700 77 35412ft 557kts
04-Jan-20 15:28 36.891554 -119.911168 86 35412ft 553kts
04-Jan-20 15:29 36.884380 -119.722141 102 35409ft 543kts
04-Jan-20 15:30 36.867116 -119.535390 102 35406ft 542kts
04-Jan-20 15:31 36.849495 -119.348763 102 35407ft 541kts
04-Jan-20 15:32 36.831524 -119.161761 102 35407ft 540kts
04-Jan-20 15:33 36.813359 -118.975884 102 35407ft 539kts
04-Jan-20 15:34 36.794942 -118.790516 102 35365ft 538kts
04-Jan-20 15:35 36.781870 -118.604555 95 35379ft 541kts
04-Jan-20 15:36 36.784461 -118.417027 92 35372ft 540kts
04-Jan-20 15:37 36.787460 -118.229154 92 35339ft 539kts
04-Jan-20 15:38 36.790137 -118.042515 92 35338ft 538kts
04-Jan-20 15:39 36.792508 -117.857169 92 34721ft 532kts
04-Jan-20 15:40 36.794570 -117.672785 92 32917ft 531kts
04-Jan-20 15:41 36.796350 -117.487586 92 31107ft 536kts
04-Jan-20 15:42 36.797855 -117.300469 92 29297ft 543kts
04-Jan-20 15:43 36.799088 -117.111004 92 27461ft 549kts
04-Jan-20 15:44 36.800025 -116.920106 92 25613ft 552kts
04-Jan-20 15:45 36.778475 -116.736118 119 24402ft 520kts
04-Jan-20 15:46 36.694781 -116.597523 137 24377ft 501kts
04-Jan-20 15:47 36.602700 -116.465706 137 24380ft 506kts
04-Jan-20 15:48 36.509841 -116.334096 137 24137ft 496kts
04-Jan-20 15:49 36.421189 -116.209038 137 22225ft 462kts
04-Jan-20 15:50 36.343848 -116.100234 138 19710ft 378kts
04-Jan-20 15:51 36.276804 -116.006545 138 17205ft 358kts
04-Jan-20 15:52 36.213877 -115.918135 135 15986ft 335kts
04-Jan-20 15:53 36.172254 -115.809020 117 15112ft 345kts
04-Jan-20 15:54 36.136512 -115.700358 116 14094ft 342kts
04-Jan-20 15:55 36.101586 -115.592482 115 13072ft 330kts
04-Jan-20 15:56 36.067865 -115.488377 115 12075ft 323kts
04-Jan-20 15:57 36.035907 -115.388836 112 11125ft 298kts
04-Jan-20 15:58 36.024865 -115.288796 97 9994ft 286kts
04-Jan-20 15:59 36.028719 -115.195798 54 8626ft 266kts
04-Jan-20 16:00 36.081726 -115.142082 44 5086ft 209kts
04-Jan-20 16:01 36.117851 -115.109528 8 3438ft 149kts
04-Jan-20 16:02 36.122930 -115.142663 213 2836ft 134kts
04-Jan-20 16:03 36.091357 -115.161188 205 2184ft 76kts
04-Jan-20 16:04 36.089604 -115.164298 273 2184ft 11kts
04-Jan-20 16:05 36.084330 -115.167637 205 2184ft 28kts
04-Jan-20 16:06 36.080955 -115.171111 91 2184ft 3kts
04-Jan-20 16:07 36.080955 -115.171107 90 2184ft 0kts

Navigation Log

Ident Type
Flight plan parsing failed, navigation log unavailable